createdAt,value
2022-08-26T00:00:51.492Z,19.80
2022-08-26T00:03:20.528Z,19.80
2022-08-26T00:05:51.917Z,19.80
2022-08-26T00:08:21.952Z,19.70
2022-08-26T00:10:51.499Z,19.70
2022-08-26T00:13:20.096Z,19.70
2022-08-26T00:15:48.360Z,19.60
2022-08-26T00:18:21.692Z,19.60
2022-08-26T00:20:52.508Z,19.60
2022-08-26T00:23:24.054Z,19.50
2022-08-26T00:25:53.033Z,19.50
2022-08-26T00:28:22.814Z,19.50
2022-08-26T00:30:52.291Z,19.40
2022-08-26T00:33:21.189Z,19.40
2022-08-26T00:35:51.601Z,19.40
2022-08-26T00:38:21.779Z,19.30
2022-08-26T00:40:55.157Z,19.30
2022-08-26T00:43:24.516Z,19.30
2022-08-26T00:45:57.571Z,19.30
2022-08-26T00:48:31.867Z,19.30
2022-08-26T00:51:05.193Z,19.30
2022-08-26T00:53:38.090Z,19.30
2022-08-26T00:56:16.562Z,19.30
2022-08-26T00:58:47.971Z,19.30
2022-08-26T01:01:17.947Z,19.30
2022-08-26T01:03:47.684Z,19.30
2022-08-26T01:06:17.264Z,19.30
2022-08-26T01:08:45.608Z,19.30
2022-08-26T01:11:14.102Z,19.30
2022-08-26T01:13:43.224Z,19.20
2022-08-26T01:16:14.336Z,19.20
2022-08-26T01:18:44.485Z,19.20
2022-08-26T01:21:22.602Z,19.10
2022-08-26T01:23:57.487Z,19.10
2022-08-26T01:26:29.799Z,19.00
2022-08-26T01:29:00.938Z,19.00
2022-08-26T01:31:33.904Z,19.00
2022-08-26T01:34:09.098Z,19.00
2022-08-26T01:36:39.010Z,19.00
2022-08-26T01:39:09.857Z,18.90
2022-08-26T01:41:40.630Z,18.90
2022-08-26T01:44:18.595Z,18.90
2022-08-26T01:46:49.979Z,18.90
2022-08-26T01:49:20.423Z,18.90
2022-08-26T01:51:50.621Z,18.90
2022-08-26T01:54:23.333Z,18.90
2022-08-26T01:56:53.746Z,18.90
2022-08-26T01:59:25.555Z,18.80
2022-08-26T02:01:54.733Z,19.00
2022-08-26T02:04:26.746Z,19.00
2022-08-26T02:06:56.273Z,19.10
2022-08-26T02:09:26.787Z,19.10
2022-08-26T02:11:55.291Z,19.20
2022-08-26T02:14:27.273Z,19.20
2022-08-26T02:16:56.595Z,19.30
2022-08-26T02:19:28.445Z,19.30
2022-08-26T02:21:59.711Z,19.30
2022-08-26T02:24:31.132Z,19.30
2022-08-26T02:26:59.806Z,19.40
2022-08-26T02:29:35.886Z,19.40
2022-08-26T02:32:11.461Z,19.40
2022-08-26T02:34:39.806Z,19.40
2022-08-26T02:37:13.366Z,19.30
2022-08-26T02:39:44.600Z,19.30
2022-08-26T02:42:14.825Z,19.30
2022-08-26T02:44:43.817Z,19.30
2022-08-26T02:47:18.209Z,19.30
2022-08-26T02:49:47.480Z,19.30
2022-08-26T02:52:15.935Z,19.30
2022-08-26T02:54:45.571Z,19.30
2022-08-26T02:57:14.147Z,19.20
2022-08-26T02:59:42.346Z,19.20
2022-08-26T03:02:11.358Z,19.30
2022-08-26T03:04:40.713Z,19.40
2022-08-26T03:07:26.468Z,19.30
2022-08-26T03:09:56.949Z,19.30
2022-08-26T03:12:25.809Z,19.30
2022-08-26T03:14:54.345Z,19.30
2022-08-26T03:17:22.542Z,19.30
2022-08-26T03:19:57.090Z,19.30
2022-08-26T03:22:28.107Z,19.30
2022-08-26T03:24:57.698Z,19.30
2022-08-26T03:27:26.080Z,19.30
2022-08-26T03:30:12.626Z,19.30
2022-08-26T03:32:43.210Z,19.30
2022-08-26T03:35:11.963Z,19.40
2022-08-26T03:37:40.714Z,19.30
2022-08-26T03:40:14.147Z,19.40
2022-08-26T03:42:44.473Z,19.40
2022-08-26T03:45:14.423Z,19.40
2022-08-26T03:47:44.549Z,19.40
2022-08-26T03:50:16.039Z,19.40
2022-08-26T03:52:47.098Z,19.40
2022-08-26T03:55:17.806Z,19.40
2022-08-26T03:57:46.023Z,19.40
2022-08-26T04:00:18.434Z,19.50
2022-08-26T04:02:49.330Z,19.50
2022-08-26T04:05:19.416Z,19.50
2022-08-26T04:07:48.591Z,19.50
2022-08-26T04:10:22.069Z,19.50
2022-08-26T04:12:58.950Z,19.50
2022-08-26T04:15:28.012Z,19.50
2022-08-26T04:17:57.300Z,19.40
2022-08-26T04:20:26.323Z,19.40
2022-08-26T04:22:54.833Z,19.40
2022-08-26T04:25:24.436Z,19.40
2022-08-26T04:27:52.713Z,19.50
2022-08-26T04:30:21.282Z,19.50
2022-08-26T04:32:49.771Z,19.50
2022-08-26T04:35:18.159Z,19.40
2022-08-26T04:37:46.342Z,19.40
2022-08-26T04:40:15.168Z,19.40
2022-08-26T04:42:44.844Z,19.40
2022-08-26T04:45:14.088Z,19.30
2022-08-26T04:47:42.631Z,19.40
2022-08-26T04:50:11.790Z,19.40
2022-08-26T04:52:39.995Z,19.40
2022-08-26T04:55:09.982Z,19.40
2022-08-26T04:57:38.259Z,19.40
2022-08-26T05:00:12.054Z,19.40
2022-08-26T05:02:40.898Z,19.40
2022-08-26T05:05:12.834Z,19.40
2022-08-26T05:07:41.482Z,19.40
2022-08-26T05:10:11.455Z,19.40
2022-08-26T05:12:39.621Z,19.40
2022-08-26T05:15:11.536Z,19.40
2022-08-26T05:17:39.859Z,19.40
2022-08-26T05:20:09.318Z,19.40
2022-08-26T05:22:38.943Z,19.40
2022-08-26T05:25:07.967Z,19.40
2022-08-26T05:27:36.282Z,19.40
2022-08-26T05:30:06.544Z,19.40
2022-08-26T05:32:36.246Z,19.40
2022-08-26T05:35:04.546Z,19.40
2022-08-26T05:37:39.143Z,19.50
2022-08-26T05:40:08.363Z,19.40
2022-08-26T05:42:38.736Z,19.50
2022-08-26T05:45:08.436Z,19.50
2022-08-26T05:47:38.079Z,19.50
2022-08-26T05:50:08.689Z,19.60
2022-08-26T05:52:37.634Z,19.60
2022-08-26T05:55:06.744Z,19.60
2022-08-26T05:57:39.962Z,19.60
2022-08-26T06:00:12.784Z,19.60
2022-08-26T06:02:42.858Z,19.70
2022-08-26T06:05:11.095Z,19.70
2022-08-26T06:07:56.844Z,19.80
2022-08-26T06:10:33.052Z,19.70
2022-08-26T06:13:09.138Z,19.80
2022-08-26T06:15:43.066Z,19.80
2022-08-26T06:18:15.170Z,19.80
2022-08-26T06:20:57.970Z,19.80
2022-08-26T06:23:45.730Z,19.80
2022-08-26T06:26:15.808Z,19.90
2022-08-26T06:28:45.545Z,19.90
2022-08-26T06:31:14.711Z,19.90
2022-08-26T06:33:45.150Z,19.90
2022-08-26T06:36:18.713Z,20.00
2022-08-26T06:38:48.111Z,19.90
2022-08-26T06:41:16.792Z,19.90
2022-08-26T06:43:45.915Z,19.90
2022-08-26T06:46:17.244Z,19.90
2022-08-26T06:48:47.277Z,19.90
2022-08-26T06:51:17.519Z,19.90
2022-08-26T06:53:47.721Z,19.90
2022-08-26T06:56:19.082Z,19.90
2022-08-26T06:58:47.810Z,19.80
2022-08-26T07:01:18.327Z,19.90
2022-08-26T07:03:50.410Z,19.90
2022-08-26T07:06:19.729Z,19.90
2022-08-26T07:08:48.153Z,20.00
2022-08-26T07:11:16.874Z,20.10
2022-08-26T07:13:45.090Z,20.20
2022-08-26T07:16:16.904Z,20.30
2022-08-26T07:18:45.979Z,20.30
2022-08-26T07:21:17.280Z,20.30
2022-08-26T07:23:47.019Z,20.30
2022-08-26T07:26:17.581Z,20.10
2022-08-26T07:28:46.255Z,20.00
2022-08-26T07:31:16.271Z,19.90
2022-08-26T07:33:45.041Z,19.90
2022-08-26T07:36:15.695Z,20.00
2022-08-26T07:38:45.252Z,20.00
2022-08-26T07:41:15.745Z,19.90
2022-08-26T07:43:45.501Z,19.90
2022-08-26T07:46:18.554Z,19.80
2022-08-26T07:48:50.483Z,19.90
2022-08-26T07:51:21.860Z,20.00
2022-08-26T07:53:52.493Z,20.20
2022-08-26T07:56:23.584Z,20.30
2022-08-26T07:58:54.217Z,20.40
2022-08-26T08:01:26.959Z,20.50
2022-08-26T08:03:56.665Z,20.60
2022-08-26T08:06:28.195Z,20.90
2022-08-26T08:08:57.167Z,21.10
2022-08-26T08:11:27.265Z,21.20
2022-08-26T08:13:56.844Z,21.30
2022-08-26T08:16:26.275Z,21.40
2022-08-26T08:18:55.016Z,21.50
2022-08-26T08:21:26.037Z,21.70
2022-08-26T08:23:55.548Z,21.60
2022-08-26T08:26:25.540Z,21.80
2022-08-26T08:28:56.271Z,22.00
2022-08-26T08:31:54.519Z,22.10
2022-08-26T08:34:14.417Z,22.30
2022-08-26T08:36:46.443Z,22.40
2022-08-26T08:39:16.121Z,22.20
2022-08-26T08:41:55.598Z,22.20
2022-08-26T08:47:05.001Z,22.00
2022-08-26T08:49:35.303Z,22.00
2022-08-26T08:52:12.906Z,22.00
2022-08-26T08:54:41.609Z,21.90
2022-08-26T08:57:18.634Z,21.80
2022-08-26T08:59:53.375Z,21.40
2022-08-26T09:02:33.415Z,21.30
2022-08-26T09:05:15.265Z,21.30
2022-08-26T09:07:49.345Z,21.50
2022-08-26T09:10:33.820Z,21.50
2022-08-26T09:13:06.758Z,21.50
2022-08-26T09:15:47.801Z,21.60
2022-08-26T09:18:30.406Z,21.60
2022-08-26T09:21:03.543Z,21.70
2022-08-26T09:23:35.912Z,21.90
2022-08-26T09:26:15.535Z,21.90
2022-08-26T09:28:47.482Z,21.90
2022-08-26T09:31:22.040Z,22.00
2022-08-26T09:34:07.576Z,22.00
2022-08-26T09:36:41.527Z,21.90
2022-08-26T09:39:33.303Z,22.00
2022-08-26T09:42:11.689Z,22.00
2022-08-26T09:44:58.769Z,22.10
2022-08-26T09:47:30.263Z,22.10
2022-08-26T09:50:09.524Z,22.40
2022-08-26T09:52:38.320Z,22.60
2022-08-26T09:55:15.630Z,22.60
2022-08-26T09:57:51.158Z,22.50
2022-08-26T10:00:38.463Z,22.40
2022-08-26T10:03:10.771Z,22.30
2022-08-26T10:05:44.281Z,22.50
2022-08-26T10:08:23.735Z,22.90
2022-08-26T10:10:56.295Z,23.30
2022-08-26T10:13:31.251Z,23.40
2022-08-26T10:16:10.722Z,23.20
2022-08-26T10:18:43.554Z,23.10
2022-08-26T10:21:17.963Z,23.00
2022-08-26T10:23:50.723Z,22.90
2022-08-26T10:26:26.640Z,23.00
2022-08-26T10:29:01.502Z,23.20
2022-08-26T10:31:40.183Z,23.60
2022-08-26T10:34:12.544Z,24.00
2022-08-26T10:37:15.559Z,24.60
2022-08-26T10:39:56.919Z,24.60
2022-08-26T10:42:35.346Z,23.80
2022-08-26T10:45:11.879Z,23.40
2022-08-26T10:47:48.730Z,23.40
2022-08-26T10:50:18.014Z,23.20
2022-08-26T10:52:58.651Z,23.10
2022-08-26T10:55:37.141Z,23.10
2022-08-26T10:58:27.578Z,23.10
2022-08-26T11:01:23.324Z,23.00
2022-08-26T11:04:00.530Z,23.20
2022-08-26T11:06:31.364Z,23.20
2022-08-26T11:09:01.076Z,23.00
2022-08-26T11:11:50.052Z,22.90
2022-08-26T11:14:53.026Z,22.80
2022-08-26T11:17:56.456Z,22.90
2022-08-26T11:20:39.226Z,22.90
2022-08-26T11:23:50.476Z,23.10
2022-08-26T11:26:35.985Z,23.20
2022-08-26T11:29:13.210Z,23.50
2022-08-26T11:31:57.427Z,24.00
2022-08-26T11:34:56.697Z,24.50
2022-08-26T11:37:33.062Z,24.60
2022-08-26T11:40:04.896Z,24.30
2022-08-26T11:42:38.181Z,24.50
2022-08-26T11:45:19.292Z,24.80
2022-08-26T11:47:49.266Z,25.00
2022-08-26T11:50:21.494Z,25.40
2022-08-26T11:53:01.656Z,24.90
2022-08-26T11:55:31.212Z,23.90
2022-08-26T11:58:02.419Z,23.40
2022-08-26T12:00:39.101Z,23.20
2022-08-26T12:03:19.550Z,23.40
2022-08-26T12:05:51.176Z,23.80
2022-08-26T12:08:22.553Z,24.10
2022-08-26T12:10:50.911Z,24.20
2022-08-26T12:13:23.178Z,23.90
2022-08-26T12:15:55.637Z,23.30
2022-08-26T12:18:30.232Z,22.90
2022-08-26T12:21:01.569Z,22.80
2022-08-26T12:23:41.768Z,22.90
2022-08-26T12:26:20.423Z,23.10
2022-08-26T12:28:51.307Z,23.60
2022-08-26T12:31:24.050Z,24.50
2022-08-26T12:33:55.425Z,25.40
2022-08-26T12:36:27.599Z,25.90
2022-08-26T12:38:58.417Z,25.70
2022-08-26T12:41:40.094Z,25.40
2022-08-26T12:44:08.506Z,25.60
2022-08-26T12:46:36.771Z,25.70
2022-08-26T12:49:06.394Z,25.90
2022-08-26T12:51:41.934Z,25.90
2022-08-26T12:54:15.998Z,26.00
2022-08-26T12:56:44.339Z,25.40
2022-08-26T12:59:24.966Z,25.00
2022-08-26T13:01:54.260Z,25.20
2022-08-26T13:04:41.831Z,25.20
2022-08-26T13:07:22.901Z,24.70
2022-08-26T13:09:53.081Z,24.40
2022-08-26T13:12:29.731Z,24.10
2022-08-26T13:14:59.805Z,24.00
2022-08-26T13:17:28.808Z,24.40
2022-08-26T13:20:03.509Z,25.20
2022-08-26T13:22:32.706Z,25.70
2022-08-26T13:25:00.997Z,26.20
2022-08-26T13:27:29.316Z,26.20
2022-08-26T13:29:59.144Z,25.90
2022-08-26T13:32:27.895Z,25.70
2022-08-26T13:34:58.612Z,25.80
2022-08-26T13:37:34.362Z,25.80
2022-08-26T13:40:05.909Z,26.20
2022-08-26T13:42:34.556Z,26.20
2022-08-26T13:45:03.202Z,26.00
2022-08-26T13:47:31.519Z,26.20
2022-08-26T13:50:01.286Z,26.50
2022-08-26T13:52:30.930Z,26.20
2022-08-26T13:55:00.745Z,26.10
2022-08-26T13:57:30.445Z,25.90
2022-08-26T14:00:00.018Z,26.00
2022-08-26T14:02:28.994Z,26.00
2022-08-26T14:04:57.184Z,25.60
2022-08-26T14:07:26.820Z,25.10
2022-08-26T14:09:55.068Z,25.20
2022-08-26T14:12:23.350Z,25.50
2022-08-26T14:14:51.664Z,26.00
2022-08-26T14:17:24.426Z,26.30
2022-08-26T14:19:53.596Z,26.30
2022-08-26T14:22:23.803Z,26.10
2022-08-26T14:24:53.372Z,25.90
2022-08-26T14:27:21.675Z,25.80
2022-08-26T14:29:49.875Z,25.30
2022-08-26T14:32:23.364Z,24.80
2022-08-26T14:34:52.382Z,25.00
2022-08-26T14:37:20.903Z,25.60
2022-08-26T14:39:49.775Z,26.10
2022-08-26T14:42:22.826Z,26.20
2022-08-26T14:44:55.408Z,26.30
2022-08-26T14:47:23.704Z,26.40
2022-08-26T14:49:52.234Z,26.20
2022-08-26T14:52:21.020Z,26.20
2022-08-26T14:54:48.288Z,26.10
2022-08-26T14:57:24.590Z,25.20
2022-08-26T14:59:53.122Z,24.70
2022-08-26T15:02:33.501Z,24.20
2022-08-26T15:05:02.486Z,23.70
2022-08-26T15:07:30.708Z,23.80
2022-08-26T15:09:59.005Z,23.70
2022-08-26T15:12:28.825Z,23.30
2022-08-26T15:14:57.088Z,23.10
2022-08-26T15:17:26.252Z,23.00
2022-08-26T15:19:54.464Z,23.00
2022-08-26T15:22:22.826Z,23.00
2022-08-26T15:24:53.652Z,22.90
2022-08-26T15:27:22.317Z,22.60
2022-08-26T15:29:52.789Z,22.40
2022-08-26T15:32:21.166Z,22.30
2022-08-26T15:34:50.006Z,22.20
2022-08-26T15:37:18.434Z,22.30
2022-08-26T15:39:46.908Z,22.50
2022-08-26T15:42:16.314Z,22.50
2022-08-26T15:44:45.430Z,22.40
2022-08-26T15:47:15.231Z,22.40
2022-08-26T15:49:43.540Z,22.30
2022-08-26T15:52:11.754Z,22.10
2022-08-26T15:54:40.019Z,22.10
2022-08-26T15:57:11.482Z,21.90
2022-08-26T15:59:40.796Z,21.80
2022-08-26T16:02:09.520Z,21.70
2022-08-26T16:04:39.315Z,21.70
2022-08-26T16:07:07.558Z,21.80
2022-08-26T16:09:35.928Z,21.70
2022-08-26T16:12:04.705Z,21.70
2022-08-26T16:14:33.041Z,21.70
2022-08-26T16:17:01.242Z,21.80
2022-08-26T16:19:29.485Z,21.90
2022-08-26T16:21:59.042Z,22.10
2022-08-26T16:24:30.546Z,22.20
2022-08-26T16:26:59.106Z,22.20
2022-08-26T16:29:27.443Z,22.20
2022-08-26T16:31:55.840Z,22.10
2022-08-26T16:34:24.264Z,22.10
2022-08-26T16:36:52.980Z,22.10
2022-08-26T16:39:22.594Z,22.00
2022-08-26T16:41:50.771Z,22.10
2022-08-26T16:44:19.297Z,22.20
2022-08-26T16:46:48.045Z,22.10
2022-08-26T16:49:16.517Z,21.90
2022-08-26T16:51:44.910Z,21.80
2022-08-26T16:54:13.085Z,21.90
2022-08-26T16:56:42.663Z,21.60
2022-08-26T16:59:12.054Z,21.20
2022-08-26T17:01:40.366Z,21.00
2022-08-26T17:04:09.032Z,20.80
2022-08-26T17:06:38.272Z,20.70
2022-08-26T17:09:06.877Z,20.60
2022-08-26T17:11:36.208Z,20.50
2022-08-26T17:14:07.828Z,20.30
2022-08-26T17:16:36.578Z,20.20
2022-08-26T17:19:05.847Z,20.20
2022-08-26T17:21:36.425Z,20.10
2022-08-26T17:24:05.408Z,20.10
2022-08-26T17:26:34.020Z,20.10
2022-08-26T17:29:02.340Z,20.10
2022-08-26T17:31:33.522Z,20.10
2022-08-26T17:34:01.769Z,20.10
2022-08-26T17:36:30.085Z,20.00
2022-08-26T17:39:00.421Z,20.00
2022-08-26T17:41:28.927Z,20.10
2022-08-26T17:43:59.133Z,20.20
2022-08-26T17:46:27.511Z,20.20
2022-08-26T17:48:57.327Z,20.20
2022-08-26T17:51:25.502Z,20.20
2022-08-26T17:53:54.213Z,20.20
2022-08-26T17:56:25.487Z,20.10
2022-08-26T17:58:56.850Z,20.00
2022-08-26T18:01:27.415Z,19.90
2022-08-26T18:04:00.378Z,19.80
2022-08-26T18:06:30.373Z,19.70
2022-08-26T18:08:58.679Z,19.60
2022-08-26T18:11:27.155Z,19.40
2022-08-26T18:13:55.386Z,19.30
2022-08-26T18:16:23.722Z,19.10
2022-08-26T18:18:53.485Z,19.10
2022-08-26T18:21:28.339Z,19.00
2022-08-26T18:23:56.961Z,18.80
2022-08-26T18:26:27.445Z,18.70
2022-08-26T18:28:56.126Z,18.70
2022-08-26T18:31:24.901Z,18.60
2022-08-26T18:33:53.869Z,18.50
2022-08-26T18:36:26.260Z,18.40
2022-08-26T18:38:55.174Z,18.40
2022-08-26T18:41:27.744Z,18.30
2022-08-26T18:43:56.557Z,18.20
2022-08-26T18:46:27.067Z,18.20
2022-08-26T18:48:56.028Z,18.10
2022-08-26T18:51:29.606Z,17.90
2022-08-26T18:53:58.671Z,17.90
2022-08-26T18:56:26.948Z,17.80
2022-08-26T18:58:55.174Z,17.70
2022-08-26T19:01:27.245Z,17.70
2022-08-26T19:03:56.318Z,17.60
2022-08-26T19:06:26.733Z,17.50
2022-08-26T19:08:55.736Z,17.50
2022-08-26T19:11:32.660Z,17.40
2022-08-26T19:14:11.243Z,17.40
2022-08-26T19:16:39.489Z,17.40
2022-08-26T19:19:08.333Z,17.30
2022-08-26T19:21:39.030Z,17.20
2022-08-26T19:24:15.481Z,17.20
2022-08-26T19:26:44.379Z,17.20
2022-08-26T19:29:12.875Z,17.10
2022-08-26T19:31:44.143Z,17.10
2022-08-26T19:34:17.493Z,17.10
2022-08-26T19:36:53.102Z,17.00
2022-08-26T19:39:21.484Z,16.90
2022-08-26T19:41:50.045Z,16.90
2022-08-26T19:44:34.590Z,16.90
2022-08-26T19:47:04.036Z,16.90
2022-08-26T19:49:32.251Z,16.80
2022-08-26T19:52:05.652Z,16.80
2022-08-26T19:54:34.059Z,16.80
2022-08-26T19:57:02.234Z,16.70
2022-08-26T19:59:30.464Z,16.70
2022-08-26T20:02:01.024Z,16.70
2022-08-26T20:04:31.446Z,16.80
2022-08-26T20:07:04.294Z,16.70
2022-08-26T20:09:34.346Z,16.70
2022-08-26T20:12:06.032Z,16.70
2022-08-26T20:14:35.794Z,16.70
2022-08-26T20:17:06.030Z,16.60
2022-08-26T20:19:53.083Z,16.70
2022-08-26T20:22:23.070Z,16.60
2022-08-26T20:24:52.769Z,16.50
2022-08-26T20:27:27.603Z,16.50
2022-08-26T20:30:07.987Z,16.50
2022-08-26T20:32:36.374Z,16.50
2022-08-26T20:35:06.688Z,16.40
2022-08-26T20:37:36.391Z,16.30
2022-08-26T20:40:06.761Z,16.20
2022-08-26T20:42:35.601Z,16.10
2022-08-26T20:45:05.351Z,16.10
2022-08-26T20:47:33.649Z,16.10
2022-08-26T20:50:03.542Z,16.00
2022-08-26T20:52:32.762Z,16.00
2022-08-26T20:55:02.372Z,16.00
2022-08-26T20:57:30.619Z,15.90
2022-08-26T20:59:58.804Z,15.90
2022-08-26T21:02:28.135Z,15.90
2022-08-26T21:04:56.354Z,15.90
2022-08-26T21:07:24.611Z,15.90
2022-08-26T21:10:01.346Z,15.90
2022-08-26T21:12:32.270Z,15.90
2022-08-26T21:15:02.773Z,15.90
2022-08-26T21:17:31.304Z,15.80
2022-08-26T21:20:02.152Z,15.80
2022-08-26T21:22:31.609Z,15.80
2022-08-26T21:24:59.821Z,15.80
2022-08-26T21:27:30.839Z,15.70
2022-08-26T21:30:01.025Z,15.70
2022-08-26T21:32:29.515Z,15.70
2022-08-26T21:35:04.193Z,15.60
2022-08-26T21:37:33.701Z,15.60
2022-08-26T21:40:03.676Z,15.60
2022-08-26T21:42:36.092Z,15.60
2022-08-26T21:45:04.997Z,15.60
2022-08-26T21:47:33.224Z,15.60
2022-08-26T21:50:01.505Z,15.50
2022-08-26T21:52:29.811Z,15.50
2022-08-26T21:54:59.696Z,15.50
2022-08-26T21:57:31.179Z,15.50
2022-08-26T22:00:06.589Z,15.40
2022-08-26T22:02:36.056Z,15.40
2022-08-26T22:05:05.174Z,15.40
2022-08-26T22:07:34.599Z,15.40
2022-08-26T22:10:02.918Z,15.40
2022-08-26T22:12:31.808Z,15.40
2022-08-26T22:15:03.767Z,15.40
2022-08-26T22:17:34.382Z,15.30
2022-08-26T22:20:04.168Z,15.30
2022-08-26T22:22:32.437Z,15.30
2022-08-26T22:25:00.786Z,15.30
2022-08-26T22:27:29.124Z,15.30
2022-08-26T22:29:57.443Z,15.20
2022-08-26T22:32:27.002Z,15.20
2022-08-26T22:34:55.831Z,15.00
2022-08-26T22:37:24.132Z,14.90
2022-08-26T22:39:52.356Z,14.80
2022-08-26T22:42:20.575Z,14.80
2022-08-26T22:44:52.657Z,14.70
2022-08-26T22:47:20.894Z,14.60
2022-08-26T22:49:50.590Z,14.60
2022-08-26T22:52:18.837Z,14.50
2022-08-26T22:54:47.119Z,14.30
2022-08-26T22:57:17.217Z,14.20
2022-08-26T22:59:46.202Z,14.00
2022-08-26T23:02:14.510Z,14.00
2022-08-26T23:04:45.868Z,13.80
2022-08-26T23:07:15.481Z,13.70
2022-08-26T23:09:44.465Z,13.50
2022-08-26T23:12:13.038Z,13.40
2022-08-26T23:14:43.914Z,13.40
2022-08-26T23:17:15.741Z,13.30
2022-08-26T23:19:44.157Z,13.20
2022-08-26T23:22:12.395Z,13.10
2022-08-26T23:27:23.139Z,13.00
2022-08-26T23:29:51.763Z,13.00
2022-08-26T23:32:20.239Z,13.00
2022-08-26T23:34:56.271Z,13.10
2022-08-26T23:37:24.749Z,13.00
2022-08-26T23:39:55.945Z,13.00
2022-08-26T23:42:25.586Z,13.00
2022-08-26T23:44:57.246Z,12.90
2022-08-26T23:47:26.469Z,12.80
2022-08-26T23:49:54.742Z,12.70
2022-08-26T23:52:40.317Z,12.70
2022-08-26T23:55:10.676Z,12.60
2022-08-26T23:57:40.557Z,12.60
